sensor_id;sensor_type;location;lat;lon;timestamp;P1;durP1;ratioP1;P2;durP2;ratioP2
6825;SDS011;3451;52.476;13.316;2023-04-24T00:00:56;5.43;;;4.67;;
6825;SDS011;3451;52.476;13.316;2023-04-24T00:03:23;6.67;;;5.47;;
6825;SDS011;3451;52.476;13.316;2023-04-24T00:05:50;5.93;;;5.33;;
6825;SDS011;3451;52.476;13.316;2023-04-24T00:08:17;6.00;;;5.37;;
6825;SDS011;3451;52.476;13.316;2023-04-24T00:10:43;7.30;;;5.30;;
6825;SDS011;3451;52.476;13.316;2023-04-24T00:13:09;6.20;;;5.27;;
6825;SDS011;3451;52.476;13.316;2023-04-24T00:15:36;7.47;;;5.50;;
6825;SDS011;3451;52.476;13.316;2023-04-24T00:18:02;7.17;;;5.20;;
6825;SDS011;3451;52.476;13.316;2023-04-24T00:20:29;6.83;;;5.43;;
6825;SDS011;3451;52.476;13.316;2023-04-24T00:23:04;8.10;;;4.87;;
6825;SDS011;3451;52.476;13.316;2023-04-24T00:25:31;6.20;;;5.60;;
6825;SDS011;3451;52.476;13.316;2023-04-24T00:27:57;5.97;;;5.30;;
6825;SDS011;3451;52.476;13.316;2023-04-24T00:30:23;6.00;;;5.03;;
6825;SDS011;3451;52.476;13.316;2023-04-24T00:32:49;7.07;;;5.40;;
6825;SDS011;3451;52.476;13.316;2023-04-24T00:35:16;6.67;;;4.60;;
6825;SDS011;3451;52.476;13.316;2023-04-24T00:37:42;8.10;;;5.20;;
6825;SDS011;3451;52.476;13.316;2023-04-24T00:40:09;7.43;;;4.77;;
6825;SDS011;3451;52.476;13.316;2023-04-24T00:42:35;6.37;;;5.63;;
6825;SDS011;3451;52.476;13.316;2023-04-24T00:45:02;8.50;;;5.33;;
6825;SDS011;3451;52.476;13.316;2023-04-24T00:47:29;5.37;;;4.83;;
6825;SDS011;3451;52.476;13.316;2023-04-24T00:49:56;6.53;;;5.20;;
6825;SDS011;3451;52.476;13.316;2023-04-24T00:52:22;7.00;;;5.03;;
6825;SDS011;3451;52.476;13.316;2023-04-24T00:54:50;5.80;;;5.00;;
6825;SDS011;3451;52.476;13.316;2023-04-24T00:57:16;6.37;;;5.40;;
6825;SDS011;3451;52.476;13.316;2023-04-24T00:59:43;6.80;;;5.03;;
6825;SDS011;3451;52.476;13.316;2023-04-24T01:02:10;6.00;;;4.90;;
6825;SDS011;3451;52.476;13.316;2023-04-24T01:04:37;5.87;;;5.27;;
6825;SDS011;3451;52.476;13.316;2023-04-24T01:07:04;7.10;;;5.50;;
6825;SDS011;3451;52.476;13.316;2023-04-24T01:09:39;6.10;;;5.30;;
6825;SDS011;3451;52.476;13.316;2023-04-24T01:12:07;6.63;;;5.67;;
6825;SDS011;3451;52.476;13.316;2023-04-24T01:14:34;5.77;;;5.10;;
6825;SDS011;3451;52.476;13.316;2023-04-24T01:17:00;6.97;;;5.20;;
6825;SDS011;3451;52.476;13.316;2023-04-24T01:19:27;5.90;;;5.10;;
6825;SDS011;3451;52.476;13.316;2023-04-24T01:21:54;5.83;;;5.20;;
6825;SDS011;3451;52.476;13.316;2023-04-24T01:24:23;5.93;;;5.10;;
6825;SDS011;3451;52.476;13.316;2023-04-24T01:26:49;6.80;;;5.50;;
6825;SDS011;3451;52.476;13.316;2023-04-24T01:29:15;5.87;;;5.27;;
6825;SDS011;3451;52.476;13.316;2023-04-24T01:31:42;7.13;;;5.30;;
6825;SDS011;3451;52.476;13.316;2023-04-24T01:34:08;5.90;;;4.93;;
6825;SDS011;3451;52.476;13.316;2023-04-24T01:36:35;6.20;;;5.30;;
6825;SDS011;3451;52.476;13.316;2023-04-24T01:39:02;6.00;;;5.40;;
6825;SDS011;3451;52.476;13.316;2023-04-24T01:41:29;6.90;;;5.50;;
6825;SDS011;3451;52.476;13.316;2023-04-24T01:43:56;6.43;;;5.50;;
6825;SDS011;3451;52.476;13.316;2023-04-24T01:46:23;6.80;;;5.47;;
6825;SDS011;3451;52.476;13.316;2023-04-24T01:48:49;6.53;;;5.77;;
6825;SDS011;3451;52.476;13.316;2023-04-24T01:51:17;6.90;;;5.70;;
6825;SDS011;3451;52.476;13.316;2023-04-24T01:53:43;7.37;;;5.93;;
6825;SDS011;3451;52.476;13.316;2023-04-24T01:56:09;7.00;;;5.70;;
6825;SDS011;3451;52.476;13.316;2023-04-24T01:58:36;7.17;;;5.70;;
6825;SDS011;3451;52.476;13.316;2023-04-24T02:01:02;7.53;;;5.90;;
6825;SDS011;3451;52.476;13.316;2023-04-24T02:03:28;9.43;;;6.00;;
6825;SDS011;3451;52.476;13.316;2023-04-24T02:05:55;8.13;;;5.80;;
6825;SDS011;3451;52.476;13.316;2023-04-24T02:08:21;7.17;;;5.63;;
6825;SDS011;3451;52.476;13.316;2023-04-24T02:10:48;8.60;;;6.20;;
6825;SDS011;3451;52.476;13.316;2023-04-24T02:13:14;7.33;;;6.10;;
6825;SDS011;3451;52.476;13.316;2023-04-24T02:15:40;8.53;;;5.70;;
6825;SDS011;3451;52.476;13.316;2023-04-24T02:18:07;6.83;;;5.93;;
6825;SDS011;3451;52.476;13.316;2023-04-24T02:20:33;8.43;;;5.90;;
6825;SDS011;3451;52.476;13.316;2023-04-24T02:23:02;7.27;;;5.93;;
6825;SDS011;3451;52.476;13.316;2023-04-24T02:25:29;7.33;;;5.70;;
6825;SDS011;3451;52.476;13.316;2023-04-24T02:27:55;8.10;;;6.10;;
6825;SDS011;3451;52.476;13.316;2023-04-24T02:33:02;7.53;;;6.13;;
6825;SDS011;3451;52.476;13.316;2023-04-24T02:35:29;6.33;;;5.60;;
6825;SDS011;3451;52.476;13.316;2023-04-24T02:37:55;7.23;;;6.13;;
6825;SDS011;3451;52.476;13.316;2023-04-24T02:40:22;6.60;;;5.90;;
6825;SDS011;3451;52.476;13.316;2023-04-24T02:42:48;7.27;;;6.00;;
6825;SDS011;3451;52.476;13.316;2023-04-24T02:45:14;7.23;;;5.70;;
6825;SDS011;3451;52.476;13.316;2023-04-24T02:47:41;6.60;;;5.90;;
6825;SDS011;3451;52.476;13.316;2023-04-24T02:50:07;6.20;;;5.53;;
6825;SDS011;3451;52.476;13.316;2023-04-24T02:52:33;7.00;;;6.00;;
6825;SDS011;3451;52.476;13.316;2023-04-24T02:55:00;7.03;;;6.30;;
6825;SDS011;3451;52.476;13.316;2023-04-24T02:57:26;6.60;;;5.90;;
6825;SDS011;3451;52.476;13.316;2023-04-24T02:59:52;6.83;;;5.83;;
6825;SDS011;3451;52.476;13.316;2023-04-24T03:02:19;6.60;;;5.87;;
6825;SDS011;3451;52.476;13.316;2023-04-24T03:04:46;7.80;;;5.90;;
6825;SDS011;3451;52.476;13.316;2023-04-24T03:07:14;6.40;;;5.67;;
6825;SDS011;3451;52.476;13.316;2023-04-24T03:09:41;8.30;;;5.77;;
6825;SDS011;3451;52.476;13.316;2023-04-24T03:12:08;6.10;;;5.50;;
6825;SDS011;3451;52.476;13.316;2023-04-24T03:14:34;7.67;;;6.37;;
6825;SDS011;3451;52.476;13.316;2023-04-24T03:17:00;6.33;;;5.70;;
6825;SDS011;3451;52.476;13.316;2023-04-24T03:19:27;7.57;;;6.13;;
6825;SDS011;3451;52.476;13.316;2023-04-24T03:21:53;6.67;;;5.77;;
6825;SDS011;3451;52.476;13.316;2023-04-24T03:24:20;7.87;;;5.93;;
6825;SDS011;3451;52.476;13.316;2023-04-24T03:26:46;7.03;;;5.53;;
6825;SDS011;3451;52.476;13.316;2023-04-24T03:29:13;8.33;;;5.97;;
6825;SDS011;3451;52.476;13.316;2023-04-24T03:31:39;6.77;;;6.00;;
6825;SDS011;3451;52.476;13.316;2023-04-24T03:34:05;7.23;;;5.67;;
6825;SDS011;3451;52.476;13.316;2023-04-24T03:36:32;6.07;;;5.47;;
6825;SDS011;3451;52.476;13.316;2023-04-24T03:38:58;7.37;;;6.20;;
6825;SDS011;3451;52.476;13.316;2023-04-24T03:41:24;9.20;;;6.10;;
6825;SDS011;3451;52.476;13.316;2023-04-24T03:43:51;6.43;;;5.70;;
6825;SDS011;3451;52.476;13.316;2023-04-24T03:46:17;7.83;;;5.60;;
6825;SDS011;3451;52.476;13.316;2023-04-24T03:48:43;6.60;;;5.33;;
6825;SDS011;3451;52.476;13.316;2023-04-24T03:51:10;6.37;;;5.50;;
6825;SDS011;3451;52.476;13.316;2023-04-24T03:53:36;6.87;;;5.80;;
6825;SDS011;3451;52.476;13.316;2023-04-24T03:56:02;7.27;;;5.60;;
6825;SDS011;3451;52.476;13.316;2023-04-24T03:58:29;7.60;;;5.97;;
6825;SDS011;3451;52.476;13.316;2023-04-24T04:00:55;6.80;;;5.70;;
6825;SDS011;3451;52.476;13.316;2023-04-24T04:03:24;6.97;;;5.70;;
6825;SDS011;3451;52.476;13.316;2023-04-24T04:05:51;7.67;;;5.70;;
6825;SDS011;3451;52.476;13.316;2023-04-24T04:08:18;6.87;;;5.50;;
6825;SDS011;3451;52.476;13.316;2023-04-24T04:10:44;8.13;;;5.93;;
6825;SDS011;3451;52.476;13.316;2023-04-24T04:13:10;7.10;;;5.30;;
6825;SDS011;3451;52.476;13.316;2023-04-24T04:15:36;5.90;;;5.30;;
6825;SDS011;3451;52.476;13.316;2023-04-24T04:18:03;8.90;;;5.27;;
6825;SDS011;3451;52.476;13.316;2023-04-24T04:20:29;6.70;;;5.23;;
6825;SDS011;3451;52.476;13.316;2023-04-24T04:22:55;8.07;;;5.17;;
6825;SDS011;3451;52.476;13.316;2023-04-24T04:25:22;8.00;;;5.33;;
6825;SDS011;3451;52.476;13.316;2023-04-24T04:27:49;7.63;;;5.10;;
6825;SDS011;3451;52.476;13.316;2023-04-24T04:30:17;6.57;;;5.27;;
6825;SDS011;3451;52.476;13.316;2023-04-24T04:32:44;6.77;;;5.53;;
6825;SDS011;3451;52.476;13.316;2023-04-24T04:35:10;6.37;;;5.13;;
6825;SDS011;3451;52.476;13.316;2023-04-24T04:37:37;6.40;;;5.17;;
6825;SDS011;3451;52.476;13.316;2023-04-24T04:40:04;6.60;;;5.30;;
6825;SDS011;3451;52.476;13.316;2023-04-24T04:42:37;6.53;;;5.37;;
6825;SDS011;3451;52.476;13.316;2023-04-24T04:45:07;7.37;;;5.17;;
6825;SDS011;3451;52.476;13.316;2023-04-24T04:47:34;5.27;;;4.77;;
6825;SDS011;3451;52.476;13.316;2023-04-24T04:50:01;5.17;;;4.67;;
6825;SDS011;3451;52.476;13.316;2023-04-24T04:52:27;7.07;;;4.87;;
6825;SDS011;3451;52.476;13.316;2023-04-24T04:54:53;5.47;;;4.87;;
6825;SDS011;3451;52.476;13.316;2023-04-24T04:57:20;5.60;;;4.33;;
6825;SDS011;3451;52.476;13.316;2023-04-24T04:59:46;5.20;;;4.30;;
6825;SDS011;3451;52.476;13.316;2023-04-24T05:02:13;4.93;;;4.20;;
6825;SDS011;3451;52.476;13.316;2023-04-24T05:04:39;7.07;;;4.87;;
6825;SDS011;3451;52.476;13.316;2023-04-24T05:07:06;4.37;;;3.93;;
6825;SDS011;3451;52.476;13.316;2023-04-24T05:09:32;7.97;;;4.10;;
6825;SDS011;3451;52.476;13.316;2023-04-24T05:11:58;4.10;;;3.70;;
6825;SDS011;3451;52.476;13.316;2023-04-24T05:14:25;5.80;;;4.00;;
6825;SDS011;3451;52.476;13.316;2023-04-24T05:16:51;4.60;;;3.90;;
6825;SDS011;3451;52.476;13.316;2023-04-24T05:19:17;3.73;;;3.23;;
6825;SDS011;3451;52.476;13.316;2023-04-24T05:21:44;5.43;;;3.83;;
6825;SDS011;3451;52.476;13.316;2023-04-24T05:24:10;3.83;;;3.20;;
6825;SDS011;3451;52.476;13.316;2023-04-24T05:26:36;5.03;;;3.30;;
6825;SDS011;3451;52.476;13.316;2023-04-24T05:29:03;9.77;;;3.63;;
6825;SDS011;3451;52.476;13.316;2023-04-24T05:31:29;4.27;;;3.20;;
6825;SDS011;3451;52.476;13.316;2023-04-24T05:33:55;3.70;;;3.13;;
6825;SDS011;3451;52.476;13.316;2023-04-24T05:36:22;5.67;;;3.40;;
6825;SDS011;3451;52.476;13.316;2023-04-24T05:38:48;5.70;;;3.23;;
6825;SDS011;3451;52.476;13.316;2023-04-24T05:41:14;6.27;;;3.43;;
6825;SDS011;3451;52.476;13.316;2023-04-24T05:43:41;3.73;;;2.87;;
6825;SDS011;3451;52.476;13.316;2023-04-24T05:46:07;3.77;;;2.97;;
6825;SDS011;3451;52.476;13.316;2023-04-24T05:48:34;3.80;;;2.37;;
6825;SDS011;3451;52.476;13.316;2023-04-24T05:51:00;4.03;;;2.50;;
6825;SDS011;3451;52.476;13.316;2023-04-24T05:53:26;3.63;;;2.47;;
6825;SDS011;3451;52.476;13.316;2023-04-24T05:55:53;4.90;;;2.80;;
6825;SDS011;3451;52.476;13.316;2023-04-24T05:58:20;3.13;;;2.77;;
6825;SDS011;3451;52.476;13.316;2023-04-24T06:00:46;2.50;;;2.30;;
6825;SDS011;3451;52.476;13.316;2023-04-24T06:03:13;2.27;;;2.07;;
6825;SDS011;3451;52.476;13.316;2023-04-24T06:05:39;3.60;;;2.10;;
6825;SDS011;3451;52.476;13.316;2023-04-24T06:08:06;2.43;;;2.10;;
6825;SDS011;3451;52.476;13.316;2023-04-24T06:10:32;3.63;;;2.10;;
6825;SDS011;3451;52.476;13.316;2023-04-24T06:12:59;3.27;;;2.20;;
6825;SDS011;3451;52.476;13.316;2023-04-24T06:15:29;3.50;;;2.20;;
6825;SDS011;3451;52.476;13.316;2023-04-24T06:17:56;2.97;;;2.07;;
6825;SDS011;3451;52.476;13.316;2023-04-24T06:20:23;3.13;;;1.90;;
6825;SDS011;3451;52.476;13.316;2023-04-24T06:22:49;2.13;;;1.80;;
6825;SDS011;3451;52.476;13.316;2023-04-24T06:25:16;2.37;;;1.60;;
6825;SDS011;3451;52.476;13.316;2023-04-24T06:27:42;3.97;;;1.67;;
6825;SDS011;3451;52.476;13.316;2023-04-24T06:30:09;3.43;;;1.60;;
6825;SDS011;3451;52.476;13.316;2023-04-24T06:32:35;1.90;;;1.47;;
6825;SDS011;3451;52.476;13.316;2023-04-24T06:35:01;2.83;;;1.43;;
6825;SDS011;3451;52.476;13.316;2023-04-24T06:37:28;2.83;;;1.70;;
6825;SDS011;3451;52.476;13.316;2023-04-24T06:39:55;1.65;;;1.25;;
6825;SDS011;3451;52.476;13.316;2023-04-24T06:42:21;4.40;;;1.08;;
6825;SDS011;3451;52.476;13.316;2023-04-24T06:44:48;2.25;;;0.95;;
6825;SDS011;3451;52.476;13.316;2023-04-24T06:47:14;4.38;;;1.10;;
6825;SDS011;3451;52.476;13.316;2023-04-24T06:49:41;1.92;;;1.10;;
6825;SDS011;3451;52.476;13.316;2023-04-24T06:52:08;1.13;;;0.77;;
6825;SDS011;3451;52.476;13.316;2023-04-24T06:54:34;1.00;;;0.88;;
6825;SDS011;3451;52.476;13.316;2023-04-24T06:57:01;2.47;;;0.98;;
6825;SDS011;3451;52.476;13.316;2023-04-24T06:59:29;1.48;;;0.70;;
6825;SDS011;3451;52.476;13.316;2023-04-24T07:01:56;1.00;;;0.85;;
6825;SDS011;3451;52.476;13.316;2023-04-24T07:04:23;2.33;;;0.90;;
6825;SDS011;3451;52.476;13.316;2023-04-24T07:06:51;3.97;;;1.10;;
6825;SDS011;3451;52.476;13.316;2023-04-24T07:09:20;1.60;;;0.88;;
6825;SDS011;3451;52.476;13.316;2023-04-24T07:11:46;1.83;;;0.80;;
6825;SDS011;3451;52.476;13.316;2023-04-24T07:14:14;1.98;;;0.85;;
6825;SDS011;3451;52.476;13.316;2023-04-24T07:16:40;1.33;;;1.00;;
6825;SDS011;3451;52.476;13.316;2023-04-24T07:19:06;2.67;;;0.68;;
6825;SDS011;3451;52.476;13.316;2023-04-24T07:21:33;0.85;;;0.63;;
6825;SDS011;3451;52.476;13.316;2023-04-24T07:23:59;2.50;;;0.85;;
6825;SDS011;3451;52.476;13.316;2023-04-24T07:26:28;2.08;;;1.10;;
6825;SDS011;3451;52.476;13.316;2023-04-24T07:28:55;1.10;;;0.68;;
6825;SDS011;3451;52.476;13.316;2023-04-24T07:31:21;1.73;;;0.77;;
6825;SDS011;3451;52.476;13.316;2023-04-24T07:33:48;1.48;;;0.60;;
6825;SDS011;3451;52.476;13.316;2023-04-24T07:36:14;1.25;;;0.60;;
6825;SDS011;3451;52.476;13.316;2023-04-24T07:38:45;2.30;;;0.70;;
6825;SDS011;3451;52.476;13.316;2023-04-24T07:41:12;0.68;;;0.50;;
6825;SDS011;3451;52.476;13.316;2023-04-24T07:43:38;2.42;;;0.70;;
6825;SDS011;3451;52.476;13.316;2023-04-24T07:46:05;2.40;;;0.85;;
6825;SDS011;3451;52.476;13.316;2023-04-24T07:48:34;4.20;;;0.60;;
6825;SDS011;3451;52.476;13.316;2023-04-24T07:51:00;2.67;;;0.57;;
6825;SDS011;3451;52.476;13.316;2023-04-24T07:53:27;1.50;;;0.63;;
6825;SDS011;3451;52.476;13.316;2023-04-24T07:55:54;4.47;;;0.47;;
6825;SDS011;3451;52.476;13.316;2023-04-24T07:58:21;0.88;;;0.63;;
6825;SDS011;3451;52.476;13.316;2023-04-24T08:00:47;2.15;;;0.50;;
6825;SDS011;3451;52.476;13.316;2023-04-24T08:03:13;1.30;;;0.60;;
6825;SDS011;3451;52.476;13.316;2023-04-24T08:05:40;0.70;;;0.60;;
6825;SDS011;3451;52.476;13.316;2023-04-24T08:13:50;0.98;;;0.60;;
6825;SDS011;3451;52.476;13.316;2023-04-24T08:16:16;1.00;;;0.50;;
6825;SDS011;3451;52.476;13.316;2023-04-24T08:18:42;1.95;;;0.90;;
6825;SDS011;3451;52.476;13.316;2023-04-24T08:21:09;3.10;;;0.63;;
6825;SDS011;3451;52.476;13.316;2023-04-24T08:23:35;1.02;;;0.70;;
6825;SDS011;3451;52.476;13.316;2023-04-24T08:26:01;1.73;;;0.80;;
6825;SDS011;3451;52.476;13.316;2023-04-24T08:28:29;1.57;;;0.60;;
6825;SDS011;3451;52.476;13.316;2023-04-24T08:30:55;2.20;;;1.13;;
6825;SDS011;3451;52.476;13.316;2023-04-24T08:33:22;0.63;;;0.50;;
6825;SDS011;3451;52.476;13.316;2023-04-24T08:35:48;3.03;;;0.70;;
6825;SDS011;3451;52.476;13.316;2023-04-24T08:38:15;2.83;;;0.50;;
6825;SDS011;3451;52.476;13.316;2023-04-24T08:40:41;1.30;;;0.70;;
6825;SDS011;3451;52.476;13.316;2023-04-24T08:43:08;2.87;;;0.67;;
6825;SDS011;3451;52.476;13.316;2023-04-24T08:45:36;1.63;;;0.67;;
6825;SDS011;3451;52.476;13.316;2023-04-24T08:48:02;3.27;;;0.63;;
6825;SDS011;3451;52.476;13.316;2023-04-24T08:50:34;0.80;;;0.60;;
6825;SDS011;3451;52.476;13.316;2023-04-24T08:53:01;0.80;;;0.70;;
6825;SDS011;3451;52.476;13.316;2023-04-24T08:55:30;2.23;;;0.90;;
6825;SDS011;3451;52.476;13.316;2023-04-24T08:57:56;3.23;;;0.70;;
6825;SDS011;3451;52.476;13.316;2023-04-24T09:00:23;1.33;;;0.60;;
6825;SDS011;3451;52.476;13.316;2023-04-24T09:02:50;1.80;;;0.60;;
6825;SDS011;3451;52.476;13.316;2023-04-24T09:05:17;0.77;;;0.63;;
6825;SDS011;3451;52.476;13.316;2023-04-24T09:07:45;0.90;;;0.60;;
6825;SDS011;3451;52.476;13.316;2023-04-24T09:10:13;2.17;;;0.90;;
6825;SDS011;3451;52.476;13.316;2023-04-24T09:12:40;1.43;;;0.83;;
6825;SDS011;3451;52.476;13.316;2023-04-24T09:15:07;4.00;;;0.93;;
6825;SDS011;3451;52.476;13.316;2023-04-24T09:17:34;1.20;;;0.90;;
6825;SDS011;3451;52.476;13.316;2023-04-24T09:20:01;3.20;;;1.10;;
6825;SDS011;3451;52.476;13.316;2023-04-24T09:22:31;3.17;;;0.90;;
6825;SDS011;3451;52.476;13.316;2023-04-24T09:25:04;2.43;;;0.80;;
6825;SDS011;3451;52.476;13.316;2023-04-24T09:27:32;3.37;;;1.20;;
6825;SDS011;3451;52.476;13.316;2023-04-24T09:29:58;2.97;;;1.10;;
6825;SDS011;3451;52.476;13.316;2023-04-24T09:32:26;4.23;;;1.00;;
6825;SDS011;3451;52.476;13.316;2023-04-24T09:35:11;1.60;;;0.87;;
6825;SDS011;3451;52.476;13.316;2023-04-24T09:37:39;1.57;;;0.73;;
6825;SDS011;3451;52.476;13.316;2023-04-24T09:40:17;1.70;;;1.10;;
6825;SDS011;3451;52.476;13.316;2023-04-24T09:43:01;2.30;;;1.20;;
6825;SDS011;3451;52.476;13.316;2023-04-24T09:45:35;2.20;;;0.80;;
6825;SDS011;3451;52.476;13.316;2023-04-24T09:48:01;1.73;;;0.77;;
6825;SDS011;3451;52.476;13.316;2023-04-24T09:50:29;1.77;;;0.93;;
6825;SDS011;3451;52.476;13.316;2023-04-24T09:52:58;2.00;;;0.80;;
6825;SDS011;3451;52.476;13.316;2023-04-24T09:55:25;3.17;;;1.20;;
6825;SDS011;3451;52.476;13.316;2023-04-24T09:57:52;1.17;;;0.70;;
6825;SDS011;3451;52.476;13.316;2023-04-24T10:00:29;2.43;;;0.80;;
6825;SDS011;3451;52.476;13.316;2023-04-24T10:02:56;1.27;;;0.73;;
6825;SDS011;3451;52.476;13.316;2023-04-24T10:05:23;2.80;;;0.70;;
6825;SDS011;3451;52.476;13.316;2023-04-24T10:07:50;3.23;;;0.90;;
6825;SDS011;3451;52.476;13.316;2023-04-24T10:10:17;3.37;;;0.87;;
6825;SDS011;3451;52.476;13.316;2023-04-24T10:12:43;2.57;;;0.80;;
6825;SDS011;3451;52.476;13.316;2023-04-24T10:15:10;2.93;;;0.93;;
6825;SDS011;3451;52.476;13.316;2023-04-24T10:17:38;2.40;;;0.87;;
6825;SDS011;3451;52.476;13.316;2023-04-24T10:20:05;1.27;;;0.67;;
6825;SDS011;3451;52.476;13.316;2023-04-24T10:22:32;1.47;;;0.90;;
6825;SDS011;3451;52.476;13.316;2023-04-24T10:24:58;2.33;;;0.80;;
6825;SDS011;3451;52.476;13.316;2023-04-24T10:27:26;3.47;;;0.90;;
6825;SDS011;3451;52.476;13.316;2023-04-24T10:29:52;2.30;;;0.77;;
6825;SDS011;3451;52.476;13.316;2023-04-24T10:32:19;1.87;;;0.80;;
6825;SDS011;3451;52.476;13.316;2023-04-24T10:34:45;1.70;;;1.00;;
6825;SDS011;3451;52.476;13.316;2023-04-24T10:37:11;5.50;;;0.93;;
6825;SDS011;3451;52.476;13.316;2023-04-24T10:39:39;3.80;;;1.40;;
6825;SDS011;3451;52.476;13.316;2023-04-24T10:42:16;4.00;;;0.83;;
6825;SDS011;3451;52.476;13.316;2023-04-24T10:44:42;2.83;;;0.70;;
6825;SDS011;3451;52.476;13.316;2023-04-24T10:47:12;0.93;;;0.73;;
6825;SDS011;3451;52.476;13.316;2023-04-24T10:49:38;1.57;;;0.87;;
6825;SDS011;3451;52.476;13.316;2023-04-24T10:52:05;1.77;;;0.80;;
6825;SDS011;3451;52.476;13.316;2023-04-24T10:54:35;4.33;;;0.93;;
6825;SDS011;3451;52.476;13.316;2023-04-24T10:59:48;0.97;;;0.73;;
6825;SDS011;3451;52.476;13.316;2023-04-24T11:02:15;1.90;;;0.77;;
6825;SDS011;3451;52.476;13.316;2023-04-24T11:04:42;1.13;;;0.70;;
6825;SDS011;3451;52.476;13.316;2023-04-24T11:07:09;2.17;;;0.80;;
6825;SDS011;3451;52.476;13.316;2023-04-24T11:09:37;2.23;;;0.80;;
6825;SDS011;3451;52.476;13.316;2023-04-24T11:12:04;1.83;;;0.90;;
6825;SDS011;3451;52.476;13.316;2023-04-24T11:17:31;2.87;;;0.80;;
6825;SDS011;3451;52.476;13.316;2023-04-24T11:20:05;2.13;;;0.80;;
6825;SDS011;3451;52.476;13.316;2023-04-24T11:22:52;0.73;;;0.73;;
6825;SDS011;3451;52.476;13.316;2023-04-24T11:25:19;1.57;;;0.90;;
6825;SDS011;3451;52.476;13.316;2023-04-24T11:27:45;2.00;;;0.80;;
6825;SDS011;3451;52.476;13.316;2023-04-24T11:30:12;3.00;;;0.90;;
6825;SDS011;3451;52.476;13.316;2023-04-24T11:32:43;2.90;;;0.90;;
6825;SDS011;3451;52.476;13.316;2023-04-24T11:35:16;3.27;;;1.07;;
6825;SDS011;3451;52.476;13.316;2023-04-24T11:37:43;2.10;;;0.87;;
6825;SDS011;3451;52.476;13.316;2023-04-24T11:40:19;2.00;;;0.93;;
6825;SDS011;3451;52.476;13.316;2023-04-24T11:42:46;3.57;;;1.00;;
6825;SDS011;3451;52.476;13.316;2023-04-24T11:45:23;1.83;;;1.00;;
6825;SDS011;3451;52.476;13.316;2023-04-24T11:47:49;1.37;;;0.83;;
6825;SDS011;3451;52.476;13.316;2023-04-24T11:50:17;1.40;;;0.90;;
6825;SDS011;3451;52.476;13.316;2023-04-24T11:52:44;3.60;;;0.90;;
6825;SDS011;3451;52.476;13.316;2023-04-24T11:57:43;1.40;;;0.80;;
6825;SDS011;3451;52.476;13.316;2023-04-24T12:00:17;2.33;;;0.87;;
6825;SDS011;3451;52.476;13.316;2023-04-24T12:02:45;0.73;;;0.73;;
6825;SDS011;3451;52.476;13.316;2023-04-24T12:05:27;4.53;;;0.87;;
6825;SDS011;3451;52.476;13.316;2023-04-24T12:07:54;1.77;;;1.20;;
6825;SDS011;3451;52.476;13.316;2023-04-24T12:10:21;4.40;;;1.07;;
6825;SDS011;3451;52.476;13.316;2023-04-24T12:12:49;3.67;;;1.20;;
6825;SDS011;3451;52.476;13.316;2023-04-24T12:15:18;3.23;;;0.90;;
6825;SDS011;3451;52.476;13.316;2023-04-24T12:17:44;3.03;;;0.90;;
6825;SDS011;3451;52.476;13.316;2023-04-24T12:20:11;1.43;;;1.07;;
6825;SDS011;3451;52.476;13.316;2023-04-24T12:22:47;2.07;;;0.90;;
6825;SDS011;3451;52.476;13.316;2023-04-24T12:25:15;3.43;;;0.90;;
6825;SDS011;3451;52.476;13.316;2023-04-24T12:27:42;1.00;;;0.80;;
6825;SDS011;3451;52.476;13.316;2023-04-24T12:30:12;2.30;;;0.97;;
6825;SDS011;3451;52.476;13.316;2023-04-24T12:32:46;2.23;;;0.70;;
6825;SDS011;3451;52.476;13.316;2023-04-24T12:35:12;1.00;;;0.90;;
6825;SDS011;3451;52.476;13.316;2023-04-24T12:37:41;2.20;;;0.67;;
6825;SDS011;3451;52.476;13.316;2023-04-24T12:40:12;6.30;;;0.87;;
6825;SDS011;3451;52.476;13.316;2023-04-24T12:42:43;2.07;;;0.70;;
6825;SDS011;3451;52.476;13.316;2023-04-24T12:45:09;2.63;;;0.80;;
6825;SDS011;3451;52.476;13.316;2023-04-24T12:47:38;1.83;;;1.00;;
6825;SDS011;3451;52.476;13.316;2023-04-24T12:50:12;3.93;;;0.87;;
6825;SDS011;3451;52.476;13.316;2023-04-24T12:52:39;2.10;;;0.80;;
6825;SDS011;3451;52.476;13.316;2023-04-24T12:55:06;1.37;;;0.70;;
6825;SDS011;3451;52.476;13.316;2023-04-24T12:57:36;1.80;;;0.83;;
6825;SDS011;3451;52.476;13.316;2023-04-24T13:00:03;2.23;;;0.73;;
6825;SDS011;3451;52.476;13.316;2023-04-24T13:02:30;2.43;;;0.80;;
6825;SDS011;3451;52.476;13.316;2023-04-24T13:04:57;1.90;;;0.70;;
6825;SDS011;3451;52.476;13.316;2023-04-24T13:07:24;2.50;;;0.80;;
6825;SDS011;3451;52.476;13.316;2023-04-24T13:09:51;1.30;;;0.77;;
6825;SDS011;3451;52.476;13.316;2023-04-24T13:12:17;0.83;;;0.70;;
6825;SDS011;3451;52.476;13.316;2023-04-24T13:14:44;1.80;;;0.70;;
6825;SDS011;3451;52.476;13.316;2023-04-24T13:17:11;1.00;;;0.80;;
6825;SDS011;3451;52.476;13.316;2023-04-24T13:19:40;0.90;;;0.60;;
6825;SDS011;3451;52.476;13.316;2023-04-24T13:22:08;3.47;;;0.90;;
6825;SDS011;3451;52.476;13.316;2023-04-24T13:24:35;1.30;;;0.70;;
6825;SDS011;3451;52.476;13.316;2023-04-24T13:27:04;1.03;;;0.60;;
6825;SDS011;3451;52.476;13.316;2023-04-24T13:29:30;0.63;;;0.60;;
6825;SDS011;3451;52.476;13.316;2023-04-24T13:31:57;2.47;;;0.70;;
6825;SDS011;3451;52.476;13.316;2023-04-24T13:34:23;1.83;;;0.70;;
6825;SDS011;3451;52.476;13.316;2023-04-24T13:36:53;2.10;;;0.60;;
6825;SDS011;3451;52.476;13.316;2023-04-24T13:39:20;1.37;;;0.60;;
6825;SDS011;3451;52.476;13.316;2023-04-24T13:41:46;1.27;;;0.67;;
6825;SDS011;3451;52.476;13.316;2023-04-24T13:44:14;2.43;;;0.70;;
6825;SDS011;3451;52.476;13.316;2023-04-24T13:46:42;2.77;;;0.80;;
6825;SDS011;3451;52.476;13.316;2023-04-24T13:49:09;1.60;;;0.80;;
6825;SDS011;3451;52.476;13.316;2023-04-24T13:51:36;1.10;;;0.80;;
6825;SDS011;3451;52.476;13.316;2023-04-24T13:54:02;0.97;;;0.80;;
6825;SDS011;3451;52.476;13.316;2023-04-24T13:56:28;1.40;;;0.60;;
6825;SDS011;3451;52.476;13.316;2023-04-24T13:58:55;2.03;;;0.80;;
6825;SDS011;3451;52.476;13.316;2023-04-24T14:01:21;1.00;;;0.63;;
6825;SDS011;3451;52.476;13.316;2023-04-24T14:03:54;2.50;;;0.83;;
6825;SDS011;3451;52.476;13.316;2023-04-24T14:06:21;1.57;;;0.83;;
6825;SDS011;3451;52.476;13.316;2023-04-24T14:08:49;3.27;;;1.13;;
6825;SDS011;3451;52.476;13.316;2023-04-24T14:11:16;2.37;;;0.80;;
6825;SDS011;3451;52.476;13.316;2023-04-24T14:13:43;2.77;;;0.80;;
6825;SDS011;3451;52.476;13.316;2023-04-24T14:16:10;4.90;;;1.10;;
6825;SDS011;3451;52.476;13.316;2023-04-24T14:18:37;0.83;;;0.67;;
6825;SDS011;3451;52.476;13.316;2023-04-24T14:21:03;1.63;;;0.80;;
6825;SDS011;3451;52.476;13.316;2023-04-24T14:23:30;1.90;;;0.90;;
6825;SDS011;3451;52.476;13.316;2023-04-24T14:25:57;2.00;;;0.80;;
6825;SDS011;3451;52.476;13.316;2023-04-24T14:28:23;2.10;;;0.80;;
6825;SDS011;3451;52.476;13.316;2023-04-24T14:30:50;2.37;;;0.80;;
6825;SDS011;3451;52.476;13.316;2023-04-24T14:33:16;2.17;;;0.80;;
6825;SDS011;3451;52.476;13.316;2023-04-24T14:35:43;1.07;;;0.80;;
6825;SDS011;3451;52.476;13.316;2023-04-24T14:38:09;1.63;;;0.87;;
6825;SDS011;3451;52.476;13.316;2023-04-24T14:40:36;1.73;;;0.80;;
6825;SDS011;3451;52.476;13.316;2023-04-24T14:43:23;1.00;;;0.90;;
6825;SDS011;3451;52.476;13.316;2023-04-24T14:45:49;0.83;;;0.77;;
6825;SDS011;3451;52.476;13.316;2023-04-24T14:48:15;2.00;;;0.83;;
6825;SDS011;3451;52.476;13.316;2023-04-24T14:50:43;2.20;;;0.93;;
6825;SDS011;3451;52.476;13.316;2023-04-24T14:53:10;1.57;;;0.90;;
6825;SDS011;3451;52.476;13.316;2023-04-24T14:55:36;2.40;;;1.00;;
6825;SDS011;3451;52.476;13.316;2023-04-24T14:58:03;4.13;;;0.90;;
6825;SDS011;3451;52.476;13.316;2023-04-24T15:00:29;1.10;;;0.90;;
6825;SDS011;3451;52.476;13.316;2023-04-24T15:02:56;3.17;;;0.87;;
6825;SDS011;3451;52.476;13.316;2023-04-24T15:05:23;1.93;;;1.17;;
6825;SDS011;3451;52.476;13.316;2023-04-24T15:07:51;1.40;;;1.07;;
6825;SDS011;3451;52.476;13.316;2023-04-24T15:10:18;2.13;;;1.30;;
6825;SDS011;3451;52.476;13.316;2023-04-24T15:12:44;2.50;;;1.20;;
6825;SDS011;3451;52.476;13.316;2023-04-24T15:15:10;4.30;;;1.07;;
6825;SDS011;3451;52.476;13.316;2023-04-24T15:17:37;2.77;;;1.10;;